POGODA: Poland

Lotnisko: Katowice-Pyrzowice

METAR KOD: EPKT


METAR: EPKT 271630Z 29006KT 9999 FEW040 16/09 Q1013


BLOK
Pogoda METAR
271630Z
Dzien: 27, Godzina: 16:30 UTC.
29006KT
Wiatr z kierunku 290, o predkosci 11 km/h
9999
Widzialnosc pozioma ponad 10 km.
FEW040
1/8 - 2/8 pokrycia nieba, chmurami o podstawie: 1200 metrow
16/09
Temperatura: powietrze 16°C, punkt rosy 9°C . Wilgotnosc wzgledna 56 %
Q1013
Cisnienie: 1013 hPa

Pogoda na innym lotnisku

Pogoda Gdansk-Rebiechowo WEATHER Poland  
Pogoda Katowice WEATHER Poland  
Pogoda Krakow WEATHER Poland  
Pogoda Poznan WEATHER Poland  
Pogoda Rzeszow-Jasionka WEATHER Poland  
Pogoda Szczecin WEATHER Poland  
Pogoda Warszawa-Okecie WEATHER Poland  
Pogoda Wroclaw Ii WEATHER Poland  

Pogoda w inny kraju

Strona startowa

(C) by GREGOR 2007
Ogłoszenia Towarzyskie